Home > Products > Valid Products > TAF

000
FTUS46 KPQR 242111 AAA
TAFPDX
TAF AMD
KPDX 242111Z 2421/2518 31007KT P6SM SCT060
     FM242200 31010G18KT P6SM SCT060
     FM250300 31007KT P6SM SCT050
     FM251100 31004KT P6SM OVC025=



000
FTUS46 KPQR 241826 AAA
TAFONP
TAF AMD
KONP 241826Z 2418/2518 32008KT P6SM SCT015
     FM242100 33012G18KT P6SM SCT025
     FM250200 33012G18KT P6SM BKN025
     FM250500 34006KT P6SM OVC015=



000
FTUS46 KPQR 241736
TAFPDX
TAF
KPDX 241736Z 2418/2518 31007KT P6SM BKN025 OVC060
      TEMPO 2418/2419 SCT025
     FM241900 31007KT P6SM SCT030 BKN050
     FM242200 31010G18KT P6SM SCT050
     FM250400 31010KT P6SM BKN050
     FM251000 31004KT P6SM SCT025 BKN050=



000
FTUS46 KPQR 241736
TAFSLE
TAF
KSLE 241736Z 2418/2518 34005KT P6SM SCT020 BKN050
     FM242000 34008KT P6SM SCT025 SCT050
     FM250300 32007KT P6SM SCT050
     FM251200 28004KT P6SM SCT022 SCT050=



000
FTUS46 KPQR 241736
TAFHIO
TAF
KHIO 241736Z 2418/2518 00000KT P6SM BKN015 OVC050
     FM241900 31004KT P6SM SCT020 BKN050
     FM242300 31008KT P6SM SCT050
     FM250700 29004KT P6SM BKN025 BKN050=



000
FTUS46 KPQR 241736
TAFEUG
TAF
KEUG 241736Z 2418/2518 33006KT P6SM BKN020 BKN050
     FM242000 35007KT P6SM SCT025 BKN050
     FM242200 35009KT P6SM SCT050
     FM250500 24004KT P6SM SCT025
     FM250700 VRB03KT P6SM BKN025=



000
FTUS46 KPQR 241736
TAFAST
TAF
KAST 241736Z 2418/2518 32005KT P6SM SCT025 OVC030
     FM242200 31012KT P6SM BKN035
     FM250200 31012G18KT P6SM OVC025
     FM250400 30008KT 5SM BR OVC015=



000
FTUS46 KPQR 241736
TAFONP
TAF
KONP 241736Z 2418/2518 32008KT P6SM BKN012
     FM242100 33012G18KT P6SM BKN025
     FM250200 33012G18KT P6SM BKN025
     FM250500 34006KT P6SM OVC015=



000
FTUS46 KPQR 241736
TAFTTD
TAF
KTTD 241736Z 2418/2518 VRB03KT P6SM BKN020 OVC050
     FM242000 27003KT P6SM SCT025 BKN050
     FM242300 27005KT P6SM SCT050
     FM250900 26004KT P6SM BKN025 BKN050=



000
FTUS46 KPQR 241713 AAC
TAFPDX
TAF AMD
KPDX 241713Z 2417/2512 33003KT P6SM BKN025 OVC060
      TEMPO 2417/2419 SCT025
     FM241900 30003KT P6SM SCT030 BKN050
     FM242200 31010KT P6SM SCT050
     FM250400 31007KT P6SM SCT050
     FM251000 31004KT P6SM SCT025 BKN050=



000
FTUS46 KPQR 241452 AAB
TAFPDX
TAF AMD
KPDX 241452Z 2415/2512 33003KT P6SM SCT020 OVC050
      TEMPO 2415/2417 BKN020
     FM241800 30003KT P6SM BKN050
     FM242200 31010KT P6SM SCT050
     FM250400 31007KT P6SM SCT050
     FM251000 31004KT P6SM SCT025 BKN050=



000
FTUS46 KPQR 241340 AAA
TAFTTD
TAF AMD
KTTD 241340Z 2414/2512 VRB03KT P6SM OVC017
     FM241700 VRB03KT P6SM SCT020 BKN050
     FM242100 27003KT P6SM SCT050
     FM251000 26004KT P6SM BKN025 BKN050=



000
FTUS46 KPQR 241236 AAA
TAFPDX
TAF AMD
KPDX 241236Z 2413/2512 33003KT P6SM SCT020 OVC050
      TEMPO 2413/2415 BKN020
     FM241800 30003KT P6SM BKN050
     FM242200 31010KT P6SM SCT050
     FM250400 31007KT P6SM SCT050
     FM251000 31004KT P6SM SCT025 BKN050=



000
FTUS46 KPQR 241139
TAFPDX
TAF
KPDX 241139Z 2412/2512 33003KT P6SM SCT025 OVC050
     FM241800 30003KT P6SM BKN050
     FM242200 31010KT P6SM SCT050
     FM250400 31007KT P6SM SCT050
     FM251000 31004KT P6SM SCT025 BKN050=



000
FTUS46 KPQR 241139
TAFSLE
TAF
KSLE 241139Z 2412/2512 00000KT P6SM BKN050
     FM241900 34005KT P6SM BKN050
     FM242300 34010KT P6SM SCT050
     FM250300 32007KT P6SM SCT050
     FM250900 28004KT P6SM SCT022=



000
FTUS46 KPQR 241139
TAFEUG
TAF
KEUG 241139Z 2412/2512 VRB03KT 6SM BR BKN012 OVC020
      TEMPO 2414/2416 3SM BR SCT007 BKN012
     FM241600 VRB03KT P6SM BKN015 BKN025
     FM241800 33006KT P6SM SCT025 BKN050
     FM242200 35009KT P6SM SCT050
     FM250500 24004KT P6SM SCT025=



000
FTUS46 KPQR 241139
TAFTTD
TAF
KTTD 241139Z 2412/2512 VRB03KT P6SM OVC020
     FM241700 VRB03KT P6SM SCT025 BKN050
     FM242100 27003KT P6SM SCT050
     FM251000 26004KT P6SM BKN025 BKN050=



000
FTUS46 KPQR 241139
TAFONP
TAF
KONP 241139Z 2412/2512 11004KT 4SM BR SCT006 BKN024
      TEMPO 2412/2414 BKN006
     FM241400 11003KT 4SM BR SCT006 BKN025
     FM241700 33004KT P6SM SCT025
     FM241900 33012G18KT P6SM SCT030
     FM250000 35006KT P6SM SCT015
     FM250600 34007KT P6SM BKN015=



000
FTUS46 KPQR 241139
TAFAST
TAF
KAST 241139Z 2412/2512 VRB03KT P6SM SCT008 OVC015
     FM241600 14004KT P6SM BKN015 BKN025
     FM241900 31004KT P6SM SCT025 BKN035
     FM242200 31012KT P6SM BKN035
     FM250400 31008KT P6SM BKN025=



000
FTUS46 KPQR 241139
TAFHIO
TAF
KHIO 241139Z 2412/2512 00000KT P6SM SCT030 OVC050
     FM241900 31004KT P6SM BKN050
     FM242300 31008KT P6SM SCT050
     FM251000 29004KT P6SM SCT025 BKN050=



000
FTUS46 KPQR 241038 AAA
TAFTTD
TAF AMD
KTTD 241038Z 2411/2506 VRB03KT P6SM BKN025 BKN060
     FM241700 VRB03KT P6SM SCT030 BKN050
     FM242100 27003KT P6SM SCT050=



000
FTUS46 KPQR 240314 AAA
TAFPDX
TAF AMD
KPDX 240314Z 2403/2424 VRB04KT P6SM SCT050 SCT080
     FM241300 VRB03KT P6SM SCT025 BKN050
     FM242000 31005KT P6SM SCT050=



000
FTUS46 KPQR 231816 AAA
TAFHIO
TAF AMD
KHIO 231816Z 2318/2418 19005KT P6SM VCSH SCT025 BKN040 OVC060
      TEMPO 2318/2322 BKN025
     FM240000 28004KT P6SM -SHRA SCT030 BKN060
     FM240400 VRB03KT P6SM VCSH BKN050
     FM241200 00000KT P6SM BKN025 BKN050=



000
FTUS46 KPQR 231454 AAA
TAFPDX
TAF AMD
KPDX 231454Z 2315/2412 VRB04KT P6SM BKN035 OVC050
     FM231900 20006KT P6SM SCT045 BKN060
     FM232300 24008KT P6SM VCSH SCT035 BKN060
     FM240400 30004KT P6SM VCSH BKN060=



000
FTUS46 KPQR 231344 AAA
TAFAST
TAF AMD
KAST 231344Z 2314/2412 14004KT P6SM -SHRA SCT024 BKN035 OVC060
      TEMPO 2314/2317 BKN024
     FM232000 24007KT P6SM -SHRA SCT030 BKN050
     FM240900 12004KT P6SM BKN025 BKN050=



000
FTUS46 KPQR 231342 AAA
TAFEUG
TAF AMD
KEUG 231342Z 2314/2412 20006KT P6SM SCT030 OVC070
     FM231500 20007KT P6SM -SHRA SCT025 BKN050
      TEMPO 2315/2318 BKN025
     FM232100 23007KT P6SM -SHRA SCT035 OVC060
     FM240800 21004KT P6SM BKN025 OVC050=



000
FTUS46 KPQR 231130
TAFAST
TAF
KAST 231130Z 2312/2412 14004KT P6SM VCSH SCT024 BKN050
     FM232000 24007KT P6SM -SHRA SCT030 BKN050
     FM240900 12004KT P6SM BKN025 BKN050=



000
FTUS46 KPQR 231130
TAFTTD
TAF
KTTD 231130Z 2312/2412 VRB02KT P6SM -SHRA SCT030 OVC050
     FM231900 20004KT P6SM -SHRA SCT045 BKN060
     FM232300 28006KT P6SM -SHRA SCT035 BKN060
     FM240400 VRB03KT P6SM VCSH BKN060=



000
FTUS46 KPQR 231130
TAFEUG
TAF
KEUG 231130Z 2312/2412 16006KT P6SM BKN025 OVC070
     FM231700 23007KT P6SM -SHRA BKN030 BKN050
     FM232100 23007KT P6SM -SHRA SCT035 OVC060
     FM240800 21004KT P6SM BKN025 OVC050=



000
FTUS46 KPQR 231130
TAFSLE
TAF
KSLE 231130Z 2312/2412 16006KT P6SM VCSH SCT025 BKN070
      TEMPO 2314/2317 BKN025
     FM231800 19009KT P6SM -SHRA SCT025 BKN040
     FM232300 23008KT P6SM -SHRA SCT035 BKN060
     FM240400 19004KT P6SM VCSH BKN060=



000
FTUS46 KPQR 231130
TAFPDX
TAF
KPDX 231130Z 2312/2412 18006KT P6SM VCSH BKN040 OVC060
     FM231500 18006KT P6SM SCT030 OVC045
     FM231900 20006KT P6SM -SHRA SCT045 BKN060
     FM232300 28008KT P6SM -SHRA SCT035 BKN060
     FM240400 30004KT P6SM VCSH BKN060=



000
FTUS46 KPQR 231130
TAFONP
TAF
KONP 231130Z 2312/2412 19005KT 5SM -RA SCT007 BKN015 OVC030
      TEMPO 2312/2315 BKN007
     FM231800 22008KT P6SM -SHRA BKN015 OVC050
     FM240000 VRB03KT P6SM VCSH BKN025 BKN050=



000
FTUS46 KPQR 231130
TAFHIO
TAF
KHIO 231130Z 2312/2412 17004KT P6SM -SHRA SCT022 OVC050
      TEMPO 2314/2317 BKN022
     FM231900 19005KT P6SM -SHRA SCT025 BKN040 OVC060
     FM240000 28004KT P6SM -SHRA SCT030 BKN050
     FM240400 VRB03KT P6SM VCSH BKN060=



000
FTUS46 KPQR 230912 AAA
TAFEUG
TAF AMD
KEUG 230912Z 2309/2406 18007KT P6SM SCT025 OVC060
      TEMPO 2309/2313 BKN025
     FM231300 18007KT P6SM BKN025 OVC035
     FM231900 23007KT P6SM -SHRA SCT030 BKN050=



000
FTUS46 KPQR 230520
TAFAST
TAF
KAST 230520Z 2306/2406 20005KT P6SM VCSH SCT025 OVC040
     FM230900 16004KT P6SM SCT020 BKN040
     FM232000 24007KT P6SM -SHRA SCT030 BKN050=



000
FTUS46 KPQR 230520
TAFSLE
TAF
KSLE 230520Z 2306/2406 21005KT P6SM VCSH OVC060
     FM231500 18005KT P6SM BKN025 OVC050
     FM231900 20007KT P6SM -SHRA SCT025 BKN040=



000
FTUS46 KPQR 230520
TAFEUG
TAF
KEUG 230520Z 2306/2406 21007KT P6SM VCSH SCT025 BKN040 BKN060
     FM230900 19004KT P6SM SCT025 OVC040
     FM231500 18005KT P6SM BKN025 OVC035
     FM231900 23007KT P6SM -SHRA SCT030 BKN050=



000
FTUS46 KPQR 230520
TAFPDX
TAF
KPDX 230520Z 2306/2406 25006KT P6SM VCSH SCT040 BKN060
     FM230900 18005KT P6SM SCT030 OVC060
     FM231900 20006KT P6SM -SHRA SCT030 BKN060=



000
FTUS46 KPQR 230520
TAFTTD
TAF
KTTD 230520Z 2306/2406 22005KT P6SM VCSH OVC060
     FM230800 20003KT P6SM SCT025 OVC060
     FM231900 24005KT P6SM -SHRA SCT030 BKN060=



000
FTUS46 KPQR 230520
TAFONP
TAF
KONP 230520Z 2306/2406 20012G16KT P6SM VCSH SCT007 BKN015 OVC060
     FM230900 19009KT P6SM -DZ SCT007 BKN015 OVC050
     FM231800 22008KT P6SM -SHRA BKN015 OVC050
     FM240000 VRB03KT P6SM VCSH BKN025 BKN050=



000
FTUS46 KPQR 230520
TAFHIO
TAF
KHIO 230520Z 2306/2406 29004KT P6SM VCSH OVC060
     FM231000 17004KT P6SM BKN022 OVC035
     FM231900 19005KT P6SM -SHRA SCT025 BKN040
     FM240000 28004KT P6SM -SHRA SCT030 BKN050=



000
FTUS46 KPQR 230254 AAA
TAFPDX
TAF AMD
KPDX 230254Z 2303/2324 19006KT P6SM VCSH SCT040 BKN060
     FM230800 18005KT P6SM SCT040 OVC060
     FM231900 20006KT P6SM -SHRA SCT030 BKN050=



000
FTUS46 KPQR 222335
TAFSLE
TAF
KSLE 222335Z 2300/2324 24011G18KT P6SM -SHRA SCT020 BKN035 BKN050
     FM230300 21007KT P6SM VCSH BKN035 BKN060
     FM230700 17004KT P6SM SCT020 OVC040
     FM231500 18005KT P6SM BKN020 OVC035
     FM231900 20007KT P6SM -SHRA SCT025 BKN040=



000
FTUS46 KPQR 222335
TAFHIO
TAF
KHIO 222335Z 2300/2324 21008KT P6SM -SHRA SCT025 BKN045 BKN060
     FM230400 21006KT P6SM VCSH SCT025 BKN045
     FM230800 17004KT P6SM BKN022 OVC035
     FM231900 19005KT P6SM -SHRA SCT025 BKN040=



000
FTUS46 KPQR 222335
TAFONP
TAF
KONP 222335Z 2300/2324 20015G22KT P6SM VCSH SCT007 SCT025 BKN050
     FM230200 20008KT P6SM -SHRA BKN025 BKN040
     FM230900 19007KT P6SM -DZ BKN018 OVC035
     FM231800 22008KT P6SM -SHRA BKN025 OVC040=



000
FTUS46 KPQR 222335
TAFPDX
TAF
KPDX 222335Z 2300/2324 25005KT P6SM -SHRA SCT030 BKN040 BKN060
     FM230400 21005KT P6SM VCSH SCT030 BKN050
     FM230800 18005KT P6SM SCT025 OVC045
     FM231900 20006KT P6SM -SHRA SCT030 BKN050=



000
FTUS46 KPQR 222335
TAFEUG
TAF
KEUG 222335Z 2300/2324 24012KT P6SM -SHRA SCT025 BKN045
     FM230300 23009KT P6SM VCSH SCT025 BKN035 BKN060
     FM230900 19004KT P6SM SCT025 OVC040
     FM231500 18005KT P6SM BKN025 OVC035
     FM231900 21007KT P6SM -SHRA SCT025 BKN040=



000
FTUS46 KPQR 222335
TAFTTD
TAF
KTTD 222335Z 2300/2324 22005KT P6SM -SHRA SCT030 BKN040 BKN060
     FM230300 22005KT P6SM VCSH SCT025 BKN035 BKN050
     FM230800 20003KT P6SM SCT025 OVC045
     FM231900 24005KT P6SM -SHRA SCT030 BKN050=



000
FTUS46 KPQR 222335
TAFAST
TAF
KAST 222335Z 2300/2324 22012G20KT P6SM -SHRA SCT020 BKN040 BKN060
     FM230200 21008KT P6SM -SHRA SCT025 BKN040 BKN060
     FM230800 16004KT P6SM SCT020 BKN040
     FM232000 24007KT P6SM -SHRA SCT030 BKN050=



000
FTUS46 KPQR 222054 AAA
TAFPDX
TAF AMD
KPDX 222054Z 2221/2318 21010KT P6SM -SHRA SCT025 BKN040 OVC060
     FM230400 22006KT P6SM VCSH SCT030 OVC050
     FM230800 18005KT P6SM SCT025 OVC045=



000
FTUS46 KPQR 221734
TAFEUG
TAF
KEUG 221734Z 2218/2318 19008KT P6SM SCT025 BKN035 OVC060
     FM222100 22011KT P6SM -SHRA SCT025 OVC045
     FM230300 23009KT P6SM VCSH SCT025 BKN035 OVC060
     FM230900 19004KT P6SM SCT025 OVC040=



000
FTUS46 KPQR 221734
TAFONP
TAF
KONP 221734Z 2218/2318 21012G18KT P6SM SCT012 BKN045
      TEMPO 2218/2221 BKN012 OVC035
     FM222100 21012G18KT P6SM VCSH SCT015 BKN035 BKN050
     FM230200 20008KT P6SM -SHRA BKN025 OVC040
     FM230900 19007KT P6SM BKN018 OVC035=



000
FTUS46 KPQR 221734
TAFHIO
TAF
KHIO 221734Z 2218/2318 19010KT P6SM BKN025 OVC045
     FM222000 20010KT P6SM -SHRA SCT020 BKN035 OVC050
     FM230400 21008KT P6SM VCSH SCT025 OVC045
     FM230800 17004KT P6SM BKN022 OVC035=



000
FTUS46 KPQR 221734
TAFTTD
TAF
KTTD 221734Z 2218/2318 21007KT P6SM VCSH SCT017 OVC040
      TEMPO 2218/2219 BKN017 OVC040
     FM222100 22010KT P6SM -SHRA SCT020 BKN035 OVC050
     FM230300 22005KT P6SM VCSH SCT025 BKN035 OVC050
     FM230800 20003KT P6SM SCT025 OVC045=



000
FTUS46 KPQR 221734
TAFPDX
TAF
KPDX 221734Z 2218/2318 16004KT P6SM VCSH SCT025 BKN040 OVC060
     FM222100 21010KT P6SM -SHRA SCT025 BKN040 OVC060
     FM230400 22006KT P6SM VCSH SCT030 OVC050
     FM230800 18005KT P6SM SCT025 OVC045=



000
FTUS46 KPQR 221734
TAFAST
TAF
KAST 221734Z 2218/2318 22011KT P6SM VCSH SCT021 BKN035 OVC050
      TEMPO 2218/2222 BKN021 OVC035
     FM222200 22012G20KT P6SM -SHRA SCT025 OVC045
     FM230200 21008KT P6SM -SHRA SCT025 BKN040 OVC060
     FM230800 16004KT P6SM SCT020 BKN040=



000
FTUS46 KPQR 221734
TAFSLE
TAF
KSLE 221734Z 2218/2318 18009KT P6SM -SHRA BKN015 OVC045
     FM221900 20010KT P6SM SCT020 OVC050
     FM222200 20011G18KT P6SM -SHRA SCT020 BKN035 OVC045
     FM230300 21007KT P6SM VCSH BKN035 OVC060
     FM230700 17004KT P6SM SCT020 OVC040=



000
FTUS46 KPQR 221457 AAB
TAFPDX
TAF AMD
KPDX 221457Z 2215/2312 16004KT P6SM VCSH SCT025 BKN040 OVC060
     FM221900 19010KT P6SM -SHRA SCT035 BKN050 OVC070
     FM230400 22006KT P6SM VCSH BKN050=



000
FTUS46 KPQR 221300 AAA
TAFONP
TAF AMD
KONP 221300Z 2213/2312 19009KT P6SM SCT007 BKN015 OVC045
     FM221900 21012G18KT P6SM -SHRA BKN018 OVC040
     FM230100 20008KT P6SM -SHRA BKN024 OVC040=



000
FTUS46 KPQR 221122
TAFAST
TAF
KAST 221122Z 2212/2312 14004KT P6SM VCSH SCT025 OVC040
      TEMPO 2214/2217 BKN025
     FM222000 21011G20KT P6SM -SHRA BKN025 OVC045
     FM230200 21009KT P6SM -SHRA SCT025 BKN050=



000
FTUS46 KPQR 221122
TAFSLE
TAF
KSLE 221122Z 2212/2312 15005KT P6SM VCSH BKN050 OVC070
     FM221600 18009KT P6SM -SHRA BKN025 OVC070
     FM221900 21012KT P6SM -SHRA SCT025 OVC050
     FM230300 22007KT P6SM VCSH BKN050=



000
FTUS46 KPQR 221122
TAFONP
TAF
KONP 221122Z 2212/2312 19009KT P6SM SCT007 BKN015 OVC045
      TEMPO 2212/2215 6SM -SHRA BR BKN007
     FM221900 21012G18KT P6SM -SHRA BKN018 OVC040
     FM230100 20008KT P6SM -SHRA BKN024 OVC040=



000
FTUS46 KPQR 221122
TAFTTD
TAF
KTTD 221122Z 2212/2312 VRB03KT P6SM VCSH SCT050 OVC080
     FM221600 18004KT P6SM VCSH BKN025 OVC050
     FM221900 21008KT P6SM -SHRA SCT025 OVC050
     FM230300 22004KT P6SM VCSH BKN050=



000
FTUS46 KPQR 221122
TAFEUG
TAF
KEUG 221122Z 2212/2312 17007KT P6SM VCSH SCT050 OVC080
     FM221400 17007KT P6SM BKN025 OVC050
     FM221800 21008KT P6SM -SHRA SCT025 OVC050
     FM230300 23009KT P6SM VCSH BKN050
     FM230800 23006KT P6SM VCSH BKN025 BKN050=



000
FTUS46 KPQR 221122
TAFPDX
TAF
KPDX 221122Z 2212/2312 16004KT P6SM VCSH SCT050 OVC070
     FM221600 16008KT P6SM VCSH BKN025 BKN070
     FM221900 19010KT P6SM -SHRA SCT035 OVC070
     FM230400 22006KT P6SM VCSH BKN050=



000
FTUS46 KPQR 221122
TAFHIO
TAF
KHIO 221122Z 2212/2312 16005KT P6SM VCSH SCT050 OVC080
     FM221600 17005KT P6SM -SHRA BKN025 OVC050
     FM221900 21008KT P6SM -SHRA SCT025 OVC050
     FM230400 21008KT P6SM VCSH BKN050=



000
FTUS46 KPQR 220531
TAFONP
TAF
KONP 220531Z 2206/2306 21010KT P6SM SCT015 BKN050
     FM221000 19008KT P6SM BKN015 BKN035
     FM221900 21010KT P6SM -SHRA SCT025 BKN040=



000
FTUS46 KPQR 220531
TAFAST
TAF
KAST 220531Z 2206/2306 21004KT P6SM SCT025 OVC040
     FM221000 19004KT P6SM BKN025 OVC035
     FM221900 21010KT P6SM -SHRA SCT025 BKN040=



000
FTUS46 KPQR 220520
TAFEUG
TAF
KEUG 220520Z 2206/2306 24005KT P6SM VCSH SCT050 OVC080
     FM220900 18004KT P6SM BKN025 OVC050
     FM221800 23008KT P6SM -SHRA SCT025 BKN050=



000
FTUS46 KPQR 220520
TAFTTD
TAF
KTTD 220520Z 2206/2306 VRB03KT P6SM VCSH SCT050 OVC080
     FM221000 18004KT P6SM VCSH BKN025 OVC050
     FM221900 21007KT P6SM -SHRA SCT025 OVC050=



000
FTUS46 KPQR 220520
TAFPDX
TAF
KPDX 220520Z 2206/2306 VRB04KT P6SM VCSH SCT050 OVC080
     FM221100 20005KT P6SM VCSH BKN025 OVC050
     FM221900 19008KT P6SM -SHRA SCT025 OVC050=



000
FTUS46 KPQR 220520
TAFHIO
TAF
KHIO 220520Z 2206/2306 23005KT P6SM VCSH SCT050 OVC080
     FM221100 17005KT P6SM VCSH BKN025 OVC050
     FM221900 21008KT P6SM -SHRA SCT025 OVC050=



000
FTUS46 KPQR 220520
TAFSLE
TAF
KSLE 220520Z 2206/2306 19005KT P6SM VCSH SCT050 OVC080
     FM221100 18004KT P6SM VCSH BKN025 OVC050
     FM221900 21008KT P6SM -SHRA SCT025 OVC050=



000
FTUS46 KPQR 212338
TAFSLE
TAF
KSLE 212338Z 2200/2224 21007KT P6SM -SHRA SCT025 OVC050
     FM220300 19005KT P6SM VCSH SCT025 BKN035 OVC050
     FM220800 19005KT P6SM BKN025 OVC035
     FM221800 20008KT P6SM -SHRA BKN025 OVC035=



000
FTUS46 KPQR 212338
TAFONP
TAF
KONP 212338Z 2200/2224 21010KT P6SM SCT025 BKN050
     FM220300 20007KT P6SM BKN025 BKN035
     FM221500 21010KT P6SM BKN020 OVC030=



000
FTUS46 KPQR 212338
TAFPDX
TAF
KPDX 212338Z 2200/2224 21007KT P6SM -SHRA SCT025 BKN040 OVC050
     FM220300 24007KT P6SM VCSH SCT025 BKN035 OVC050
     FM220800 20005KT P6SM BKN025 OVC035
     FM221800 19008KT P6SM -SHRA BKN025 OVC035=



000
FTUS46 KPQR 212338
TAFHIO
TAF
KHIO 212338Z 2200/2224 23007KT P6SM -SHRA SCT025 OVC050
     FM220300 23005KT P6SM VCSH SCT020 BKN035 OVC050
     FM220800 20004KT P6SM SCT015 OVC025
     FM221800 20008KT P6SM -SHRA BKN025 OVC035=



000
FTUS46 KPQR 212338
TAFAST
TAF
KAST 212338Z 2200/2224 24012KT P6SM SCT025 OVC040
     FM220300 23007KT P6SM BKN025 OVC035
     FM221200 21008KT P6SM BKN020 OVC030=



000
FTUS46 KPQR 212338
TAFTTD
TAF
KTTD 212338Z 2200/2224 21005KT P6SM -SHRA SCT025 OVC050
     FM220300 22005KT P6SM VCSH SCT020 BKN035 OVC045
     FM220800 20004KT P6SM BKN022 OVC035
     FM221800 21007KT P6SM -SHRA BKN025 OVC035=



000
FTUS46 KPQR 212338
TAFEUG
TAF
KEUG 212338Z 2200/2224 23007KT P6SM -SHRA SCT025 OVC050
     FM220400 21005KT P6SM VCSH SCT025 OVC040
     FM220800 18004KT P6SM BKN025 OVC035
     FM221800 19008KT P6SM -SHRA BKN025 OVC035=



    US Dept of Commerce
    National Oceanic and Atmospheric Administration
    National Weather Service
    1325 East West Highway
    Silver Spring, MD 20910
    Page Author: NWS Internet Services Team
Disclaimer
Information Quality
Credits
Glossary
Privacy Policy
Freedom of Information Act (FOIA)
About Us
Career Opportunities